Time;durP1;ratioP1;P1;durP2;ratioP2;P2;SDS_P1;SDS_P2;PMS_P1;PMS_P2;Temp;Humidity;BMP_temperature;BMP_pressure;BME280_temperature;BME280_humidity;BME280_pressure;Samples;Min_cycle;Max_cycle;Signal;HPM_P1;HPM_P2
2023/08/10 00:00:44;;;;;;;3.80;2.10;;;10.90;99.90;;;;;;5048124;28;20955;-62
2023/08/10 00:03:11;;;;;;;2.93;2.30;;;10.90;99.90;;;;;;5048245;28;20545;-62
2023/08/10 00:05:38;;;;;;;1.93;1.83;;;10.90;99.90;;;;;;5048126;28;20497;-62
2023/08/10 00:08:05;;;;;;;2.30;2.20;;;10.90;99.90;;;;;;5047679;28;20474;-62
2023/08/10 00:10:33;;;;;;;3.73;2.80;;;10.90;99.90;;;;;;5048055;28;20684;-62
2023/08/10 00:13:00;;;;;;;2.97;2.60;;;10.80;99.90;;;;;;5048122;28;20450;-62
2023/08/10 00:15:27;;;;;;;3.93;2.13;;;10.80;99.90;;;;;;5047916;28;20949;-62
2023/08/10 00:17:53;;;;;;;3.27;2.83;;;10.80;99.90;;;;;;5047149;28;20975;-62
2023/08/10 00:20:20;;;;;;;3.67;2.27;;;10.80;99.90;;;;;;5047155;28;20451;-62
2023/08/10 00:22:47;;;;;;;2.20;2.10;;;10.70;99.90;;;;;;5048150;28;20449;-62
2023/08/10 00:25:14;;;;;;;2.90;2.30;;;10.70;99.90;;;;;;5050760;28;20461;-62
2023/08/10 00:27:42;;;;;;;3.77;2.57;;;10.70;99.90;;;;;;5051302;28;20568;-62
2023/08/10 00:30:10;;;;;;;1.80;1.70;;;10.70;99.90;;;;;;5052136;28;20546;-62
2023/08/10 00:32:36;;;;;;;2.57;2.43;;;10.60;99.90;;;;;;5052313;28;20852;-62
2023/08/10 00:35:04;;;;;;;2.70;2.50;;;10.60;99.90;;;;;;5052100;28;20458;-62
2023/08/10 00:37:31;;;;;;;3.20;2.30;;;10.60;99.90;;;;;;5050927;28;20540;-62
2023/08/10 00:39:58;;;;;;;2.13;1.93;;;10.60;99.90;;;;;;5051756;28;20512;-62
2023/08/10 00:42:24;;;;;;;2.97;2.77;;;10.60;99.90;;;;;;5051740;28;20482;-62
2023/08/10 00:44:54;;;;;;;2.80;2.60;;;10.60;99.90;;;;;;5051514;28;20455;-62
2023/08/10 00:47:21;;;;;;;2.15;2.05;;;10.60;99.90;;;;;;5050594;28;20892;-62
2023/08/10 00:49:48;;;;;;;2.97;2.00;;;10.50;99.90;;;;;;5051631;28;20209;-62
2023/08/10 00:52:16;;;;;;;4.50;2.20;;;10.50;99.90;;;;;;5051654;28;20306;-62
2023/08/10 00:54:43;;;;;;;6.25;2.53;;;10.50;99.90;;;;;;5051688;28;20221;-62
2023/08/10 00:57:09;;;;;;;3.83;2.93;;;10.50;99.90;;;;;;5050427;28;20240;-62
2023/08/10 00:59:38;;;;;;;3.63;2.57;;;10.50;99.90;;;;;;5051771;28;20450;-62
2023/08/10 01:02:07;;;;;;;3.13;2.93;;;10.50;99.90;;;;;;5051688;28;21226;-62
2023/08/10 01:04:34;;;;;;;3.63;3.10;;;10.50;99.90;;;;;;5051577;28;20447;-62
2023/08/10 01:07:07;;;;;;;3.90;3.60;;;10.50;99.90;;;;;;5050618;28;21384;-62
2023/08/10 01:09:44;;;;;;;3.38;2.15;;;10.40;99.90;;;;;;5051260;28;20541;-62
2023/08/10 01:12:18;;;;;;;3.15;2.55;;;10.40;99.90;;;;;;5051387;28;20791;-62
2023/08/10 01:14:55;;;;;;;3.40;3.10;;;10.40;99.90;;;;;;5051537;28;20211;-62
2023/08/10 01:17:29;;;;;;;2.35;2.25;;;10.40;99.90;;;;;;5050467;28;20962;-62
2023/08/10 01:19:57;;;;;;;2.70;2.50;;;10.40;99.90;;;;;;5050060;28;20211;-62
2023/08/10 01:22:29;;;;;;;2.90;2.30;;;10.30;99.90;;;;;;5051100;28;20454;-62
2023/08/10 01:25:03;;;;;;;2.53;2.30;;;10.30;99.90;;;;;;5051080;28;20472;-62
2023/08/10 01:27:30;;;;;;;2.28;2.17;;;10.30;99.90;;;;;;5054355;28;20491;-62
2023/08/10 01:29:58;;;;;;;4.17;2.10;;;10.30;99.90;;;;;;5070040;28;20211;-62
2023/08/10 01:32:27;;;;;;;1.93;1.83;;;10.30;99.90;;;;;;5070798;28;20453;-62
2023/08/10 01:34:54;;;;;;;3.53;2.10;;;10.30;99.90;;;;;;5067229;28;20451;-62
2023/08/10 01:37:21;;;;;;;2.50;2.30;;;10.30;99.90;;;;;;5049311;28;20542;-62
2023/08/10 01:39:48;;;;;;;2.25;2.08;;;10.20;99.90;;;;;;5050824;28;20276;-62
2023/08/10 01:42:16;;;;;;;4.43;3.28;;;10.20;99.90;;;;;;5050668;28;20207;-62
2023/08/10 01:44:43;;;;;;;2.20;2.00;;;10.20;99.90;;;;;;5050630;28;20211;-62
2023/08/10 01:47:16;;;;;;;2.30;2.10;;;10.20;99.90;;;;;;5049924;28;20577;-62
2023/08/10 01:49:45;;;;;;;2.42;2.33;;;10.20;99.90;;;;;;5061397;28;20457;-62
2023/08/10 01:52:14;;;;;;;3.30;2.97;;;10.20;99.90;;;;;;5070550;28;20248;-62
2023/08/10 01:54:41;;;;;;;2.88;2.40;;;10.20;99.90;;;;;;5070374;28;20574;-62
2023/08/10 01:57:08;;;;;;;2.20;2.00;;;10.20;99.90;;;;;;5069279;28;20234;-62
2023/08/10 01:59:36;;;;;;;2.70;2.50;;;10.20;99.90;;;;;;5070409;28;20335;-62
2023/08/10 02:02:03;;;;;;;2.20;2.08;;;10.20;99.90;;;;;;5070086;28;20547;-62
2023/08/10 02:04:30;;;;;;;4.55;2.33;;;10.20;99.90;;;;;;5070064;28;20214;-62
2023/08/10 02:06:57;;;;;;;4.77;2.90;;;10.20;99.90;;;;;;5069346;28;20245;-61
2023/08/10 02:09:24;;;;;;;2.78;2.10;;;10.20;99.90;;;;;;5070296;28;20441;-62
2023/08/10 02:11:51;;;;;;;4.53;3.25;;;10.30;99.90;;;;;;5070067;28;20212;-62
2023/08/10 02:14:18;;;;;;;2.63;2.43;;;10.30;99.90;;;;;;5070090;28;20249;-62
2023/08/10 02:16:46;;;;;;;4.40;2.90;;;10.30;99.90;;;;;;5069170;28;20477;-62
2023/08/10 02:19:12;;;;;;;5.68;2.85;;;10.30;99.90;;;;;;5069937;28;20291;-62
2023/08/10 02:21:39;;;;;;;5.80;3.90;;;10.30;99.90;;;;;;5068655;28;20211;-61
2023/08/10 02:24:06;;;;;;;6.47;4.30;;;10.40;99.90;;;;;;5070000;28;20480;-62
2023/08/10 02:26:33;;;;;;;4.32;3.72;;;10.40;99.90;;;;;;5068956;28;20240;-62
2023/08/10 02:29:00;;;;;;;4.13;3.50;;;10.40;99.90;;;;;;5069643;28;20213;-62
2023/08/10 02:31:27;;;;;;;3.95;2.88;;;10.40;99.90;;;;;;5069729;28;20449;-62
2023/08/10 02:33:55;;;;;;;4.45;3.10;;;10.30;99.90;;;;;;5069829;28;20756;-62
2023/08/10 02:36:22;;;;;;;3.20;3.00;;;10.30;99.90;;;;;;5068903;28;20257;-62
2023/08/10 02:38:49;;;;;;;3.23;2.63;;;10.40;99.90;;;;;;5069640;28;21079;-62
2023/08/10 02:41:16;;;;;;;4.13;3.85;;;10.40;99.90;;;;;;5069492;28;20450;-62
2023/08/10 02:43:43;;;;;;;5.40;2.90;;;10.40;99.90;;;;;;5069194;28;20223;-62
2023/08/10 02:46:10;;;;;;;3.97;3.22;;;10.40;99.90;;;;;;5068578;28;20444;-62
2023/08/10 02:48:37;;;;;;;4.45;3.85;;;10.40;99.90;;;;;;5068233;28;20728;-62
2023/08/10 02:51:05;;;;;;;3.97;3.35;;;10.40;99.90;;;;;;5069221;28;20225;-62
2023/08/10 02:53:32;;;;;;;6.50;3.70;;;10.40;99.90;;;;;;5069191;28;20215;-62
2023/08/10 02:55:59;;;;;;;2.90;2.70;;;10.40;99.90;;;;;;5068402;28;20488;-62
2023/08/10 02:58:25;;;;;;;4.25;2.50;;;10.40;99.90;;;;;;5069122;28;20233;-62
2023/08/10 03:00:52;;;;;;;5.57;3.37;;;10.40;99.90;;;;;;5069234;28;20229;-62
2023/08/10 03:03:19;;;;;;;6.90;2.80;;;10.40;99.90;;;;;;5068950;28;20450;-62
2023/08/10 03:05:46;;;;;;;5.17;3.10;;;10.40;99.90;;;;;;5068705;28;20459;-62
2023/08/10 03:08:15;;;;;;;4.80;3.50;;;10.30;99.90;;;;;;5068258;28;20585;-62
2023/08/10 03:10:42;;;;;;;4.47;3.93;;;10.30;99.90;;;;;;5068894;28;20462;-62
2023/08/10 03:13:08;;;;;;;4.30;2.87;;;10.40;99.90;;;;;;5068633;28;20448;-62
2023/08/10 03:15:36;;;;;;;4.17;3.27;;;10.30;99.90;;;;;;5068741;28;20890;-62
2023/08/10 03:18:03;;;;;;;3.30;3.00;;;10.30;99.90;;;;;;5067879;28;20476;-62
2023/08/10 03:20:30;;;;;;;3.67;3.10;;;10.30;99.90;;;;;;5067913;28;20821;-62
2023/08/10 03:22:57;;;;;;;5.85;3.20;;;10.30;99.90;;;;;;5069010;28;20459;-62
2023/08/10 03:25:25;;;;;;;4.80;3.15;;;10.30;99.90;;;;;;5068658;28;20211;-62
2023/08/10 03:27:52;;;;;;;2.70;2.50;;;10.40;99.90;;;;;;5067562;28;20239;-62
2023/08/10 03:30:19;;;;;;;4.10;3.05;;;10.30;99.90;;;;;;5068477;28;20216;-62
2023/08/10 03:32:46;;;;;;;4.60;2.90;;;10.30;99.90;;;;;;5068653;28;20215;-62
2023/08/10 03:35:13;;;;;;;14.18;3.72;;;10.30;99.90;;;;;;5068573;28;20207;-62
2023/08/10 03:37:40;;;;;;;4.30;3.90;;;10.30;99.90;;;;;;5067740;28;20298;-62
2023/08/10 03:40:08;;;;;;;3.23;2.83;;;10.30;99.90;;;;;;5064896;28;20448;-62
2023/08/10 03:42:36;;;;;;;4.37;3.70;;;10.30;99.90;;;;;;5068282;28;20449;-62
2023/08/10 03:45:04;;;;;;;5.10;3.63;;;10.30;99.90;;;;;;5068695;28;20476;-62
2023/08/10 03:47:30;;;;;;;3.05;2.60;;;10.30;99.90;;;;;;5067667;28;20229;-62
2023/08/10 03:49:57;;;;;;;3.97;3.55;;;10.30;99.90;;;;;;5068012;28;20588;-62
2023/08/10 03:52:25;;;;;;;3.53;3.22;;;10.30;99.90;;;;;;5068338;28;20217;-62
2023/08/10 03:54:52;;;;;;;4.33;2.93;;;10.30;99.90;;;;;;5068161;28;20206;-62
2023/08/10 03:57:19;;;;;;;4.97;3.45;;;10.30;99.90;;;;;;5067456;28;20498;-62
2023/08/10 03:59:47;;;;;;;3.95;3.58;;;10.30;99.90;;;;;;5068096;28;20310;-62
2023/08/10 04:02:14;;;;;;;6.53;4.40;;;10.30;99.90;;;;;;5068320;28;20298;-62
2023/08/10 04:04:41;;;;;;;3.90;2.80;;;10.30;99.90;;;;;;5068183;28;20475;-62
2023/08/10 04:07:08;;;;;;;3.10;2.73;;;10.30;99.90;;;;;;5067234;28;21043;-62
2023/08/10 04:09:35;;;;;;;4.05;3.00;;;10.30;99.90;;;;;;5068044;28;20448;-62
2023/08/10 04:12:02;;;;;;;4.22;3.45;;;10.30;99.90;;;;;;5067948;28;20761;-62
2023/08/10 04:14:29;;;;;;;8.82;2.83;;;10.30;99.90;;;;;;5068124;28;20297;-62
2023/08/10 04:16:57;;;;;;;5.10;3.50;;;10.30;99.90;;;;;;5047450;28;20351;-62
2023/08/10 04:19:24;;;;;;;10.10;3.97;;;10.30;99.90;;;;;;5055598;28;20599;-62
2023/08/10 04:21:51;;;;;;;3.20;2.70;;;10.30;99.90;;;;;;5064509;28;20458;-62
2023/08/10 04:24:18;;;;;;;6.05;2.95;;;10.30;99.90;;;;;;5047898;28;20847;-62
2023/08/10 04:26:45;;;;;;;3.27;2.80;;;10.30;99.90;;;;;;5048575;28;20238;-62
2023/08/10 04:29:12;;;;;;;3.30;3.00;;;10.30;99.90;;;;;;5061820;28;20815;-62
2023/08/10 04:31:39;;;;;;;3.47;3.20;;;10.30;99.90;;;;;;5047738;28;20453;-62
2023/08/10 04:34:07;;;;;;;4.57;3.00;;;10.40;99.90;;;;;;5057224;28;20552;-62
2023/08/10 04:36:34;;;;;;;3.87;3.33;;;10.40;99.90;;;;;;5056087;28;20208;-62
2023/08/10 04:39:01;;;;;;;4.97;4.47;;;10.40;99.90;;;;;;5048006;28;20465;-62
2023/08/10 04:41:28;;;;;;;3.43;3.17;;;10.40;99.90;;;;;;5048153;28;20456;-62
2023/08/10 04:43:55;;;;;;;2.90;2.60;;;10.40;99.90;;;;;;5057469;28;20453;-62
2023/08/10 04:46:22;;;;;;;3.00;2.70;;;10.40;99.90;;;;;;5059515;28;20448;-62
2023/08/10 04:48:48;;;;;;;3.37;3.10;;;10.30;99.90;;;;;;5047561;28;20500;-62
2023/08/10 04:51:17;;;;;;;5.00;3.92;;;10.40;99.90;;;;;;5047518;28;20557;-62
2023/08/10 04:53:43;;;;;;;5.17;4.03;;;10.40;99.90;;;;;;5047604;28;20215;-62
2023/08/10 04:56:10;;;;;;;10.70;4.00;;;10.50;99.90;;;;;;5046786;28;20545;-62
2023/08/10 04:58:37;;;;;;;3.27;2.97;;;10.50;99.90;;;;;;5047466;28;20243;-62
2023/08/10 05:01:04;;;;;;;4.50;4.10;;;10.50;99.90;;;;;;5047622;28;20449;-62
2023/08/10 05:03:31;;;;;;;6.13;3.60;;;10.60;99.90;;;;;;5047634;28;20969;-62
2023/08/10 05:05:58;;;;;;;3.80;3.50;;;10.60;99.90;;;;;;5047006;28;20448;-63
2023/08/10 05:08:26;;;;;;;3.00;2.70;;;10.70;99.90;;;;;;5047937;28;21419;-62
2023/08/10 05:10:53;;;;;;;3.90;3.60;;;10.70;99.90;;;;;;5090218;22;20304;-65
2023/08/10 05:13:20;;;;;;;8.83;4.50;;;10.80;99.90;;;;;;5091490;28;20448;-65
2023/08/10 05:15:48;;;;;;;18.97;5.73;;;10.90;99.90;;;;;;5091256;28;20532;-66
2023/08/10 05:18:15;;;;;;;9.60;5.17;;;11.00;99.90;;;;;;5090809;28;20457;-65
2023/08/10 05:20:42;;;;;;;4.83;3.73;;;11.00;99.90;;;;;;5090961;28;20521;-65
2023/08/10 05:23:09;;;;;;;4.93;4.53;;;11.10;99.90;;;;;;5089244;28;20841;-65
2023/08/10 05:25:37;;;;;;;5.27;3.23;;;11.10;99.90;;;;;;5089991;28;20445;-66
2023/08/10 05:28:04;;;;;;;9.77;4.67;;;11.20;99.90;;;;;;5070165;28;20490;-65
2023/08/10 05:30:31;;;;;;;6.13;5.53;;;11.30;99.90;;;;;;5081348;28;20997;-65
2023/08/10 05:32:58;;;;;;;6.40;4.43;;;11.40;99.90;;;;;;5078574;28;21227;-65
2023/08/10 05:35:25;;;;;;;8.37;3.97;;;11.40;99.90;;;;;;5071240;28;20454;-66
2023/08/10 05:37:52;;;;;;;6.83;4.57;;;11.50;99.90;;;;;;5069861;28;20442;-65
2023/08/10 05:40:19;;;;;;;7.73;4.87;;;11.60;99.90;;;;;;5070681;28;20510;-65
2023/08/10 05:42:48;;;;;;;6.93;5.80;;;11.70;99.90;;;;;;5070656;28;20450;-65
2023/08/10 05:45:19;;;;;;;5.07;3.80;;;11.80;99.90;;;;;;5072679;28;20549;-65
2023/08/10 05:47:47;;;;;;;6.07;3.90;;;11.90;99.90;;;;;;5087563;28;21319;-65
2023/08/10 05:50:14;;;;;;;4.77;4.33;;;12.00;99.90;;;;;;5070596;28;21176;-66
2023/08/10 05:52:42;;;;;;;5.03;4.13;;;12.10;99.90;;;;;;5070548;28;20458;-65
2023/08/10 05:55:09;;;;;;;3.87;3.53;;;12.20;99.90;;;;;;5070414;28;20469;-65
2023/08/10 05:57:36;;;;;;;3.30;3.00;;;12.30;99.90;;;;;;5069616;28;21002;-65
2023/08/10 06:00:05;;;;;;;3.73;3.43;;;12.40;99.90;;;;;;5070387;28;20458;-65
2023/08/10 06:02:32;;;;;;;3.77;3.20;;;12.50;99.90;;;;;;5070404;28;20588;-65
2023/08/10 06:04:59;;;;;;;3.27;2.97;;;12.60;99.90;;;;;;5078090;28;20450;-65
2023/08/10 06:07:26;;;;;;;3.83;3.40;;;12.70;99.90;;;;;;5081390;28;20479;-65
2023/08/10 06:09:53;;;;;;;3.70;3.40;;;12.80;99.90;;;;;;5070018;28;20942;-65
2023/08/10 06:12:20;;;;;;;3.93;3.60;;;13.00;99.90;;;;;;5069869;28;20581;-66
2023/08/10 06:14:47;;;;;;;3.47;3.27;;;13.10;99.90;;;;;;5070027;28;20455;-65
2023/08/10 06:17:15;;;;;;;3.43;3.23;;;13.30;99.90;;;;;;5069480;28;20455;-66
2023/08/10 06:19:50;;;;;;;3.23;2.90;;;13.40;99.90;;;;;;5070200;28;20452;-66
2023/08/10 06:22:17;;;;;;;4.20;3.80;;;13.60;99.90;;;;;;5070020;28;20549;-65
2023/08/10 06:24:44;;;;;;;3.87;2.50;;;13.80;99.90;;;;;;5070203;28;20944;-65
2023/08/10 06:27:11;;;;;;;2.70;2.50;;;14.00;99.90;;;;;;5075084;28;20446;-66
2023/08/10 06:29:38;;;;;;;3.53;3.07;;;14.20;99.90;;;;;;5089733;28;20450;-65
2023/08/10 06:32:07;;;;;;;3.37;3.17;;;14.30;99.90;;;;;;5089962;28;20477;-66
2023/08/10 06:34:35;;;;;;;3.20;3.00;;;14.40;99.90;;;;;;5089932;28;20478;-65
2023/08/10 06:37:02;;;;;;;3.90;3.60;;;14.50;99.90;;;;;;5088271;28;20533;-65
2023/08/10 06:39:30;;;;;;;5.50;3.83;;;14.70;99.90;;;;;;5089295;28;20507;-65
2023/08/10 06:41:57;;;;;;;4.63;3.80;;;14.70;99.90;;;;;;5089776;28;20463;-65
2023/08/10 06:44:24;;;;;;;2.87;2.67;;;14.80;99.90;;;;;;5089909;28;20850;-65
2023/08/10 06:46:50;;;;;;;2.83;2.60;;;14.80;99.90;;;;;;5088446;28;20454;-65
2023/08/10 06:49:21;;;;;;;4.53;2.83;;;14.90;99.90;;;;;;5089208;28;21013;-66
2023/08/10 06:51:50;;;;;;;4.07;2.90;;;14.90;99.90;;;;;;5089255;28;20467;-66
2023/08/10 06:54:17;;;;;;;3.80;3.47;;;15.00;99.90;;;;;;5087431;28;20471;-65
2023/08/10 06:56:44;;;;;;;2.20;2.10;;;15.00;99.90;;;;;;5087451;28;20458;-66
2023/08/10 06:59:11;;;;;;;4.33;2.60;;;15.00;99.90;;;;;;5088783;28;20959;-66
2023/08/10 07:01:38;;;;;;;4.13;2.67;;;15.00;99.90;;;;;;5086677;28;21011;-66
2023/08/10 07:04:06;;;;;;;3.17;2.97;;;15.10;99.90;;;;;;5080942;28;21023;-65
2023/08/10 07:06:33;;;;;;;3.83;3.53;;;15.10;99.90;;;;;;5086605;28;20462;-65
2023/08/10 07:09:01;;;;;;;3.50;3.17;;;15.10;99.90;;;;;;5089150;28;20487;-65
2023/08/10 07:11:28;;;;;;;3.30;3.00;;;15.20;99.90;;;;;;5088268;28;20482;-66
2023/08/10 07:13:54;;;;;;;3.13;2.87;;;15.30;99.90;;;;;;5082589;28;20998;-66
2023/08/10 07:16:21;;;;;;;3.60;3.30;;;15.50;99.90;;;;;;5087661;28;20465;-66
2023/08/10 07:18:48;;;;;;;4.00;3.70;;;15.60;99.90;;;;;;5088736;28;20540;-65
2023/08/10 07:21:15;;;;;;;2.73;2.53;;;15.80;99.90;;;;;;5088104;28;20482;-66
2023/08/10 07:23:42;;;;;;;2.50;2.30;;;15.90;99.90;;;;;;5088935;28;20828;-65
2023/08/10 07:26:10;;;;;;;2.93;2.67;;;15.90;99.90;;;;;;5087525;28;20458;-65
2023/08/10 07:28:37;;;;;;;3.57;3.27;;;16.10;99.90;;;;;;5088716;28;20497;-66
2023/08/10 07:31:04;;;;;;;2.80;2.27;;;16.20;99.90;;;;;;5088110;28;20482;-65
2023/08/10 07:33:31;;;;;;;3.20;2.90;;;16.30;99.90;;;;;;5088052;28;20863;-65
2023/08/10 07:35:59;;;;;;;3.97;3.57;;;16.50;99.90;;;;;;5087052;28;20460;-66
2023/08/10 07:38:26;;;;;;;4.97;4.47;;;16.70;99.90;;;;;;5088199;28;20460;-66
2023/08/10 07:40:53;;;;;;;6.43;5.93;;;16.90;99.90;;;;;;5079188;28;21040;-65
2023/08/10 07:43:21;;;;;;;8.33;6.60;;;17.10;99.90;;;;;;5088035;28;20483;-66
2023/08/10 07:45:48;;;;;;;5.83;5.33;;;17.40;99.90;;;;;;5086757;28;20466;-66
2023/08/10 07:48:15;;;;;;;5.23;4.83;;;17.60;99.90;;;;;;5087899;28;20507;-66
2023/08/10 07:50:41;;;;;;;7.13;6.43;;;17.90;99.90;;;;;;5080130;28;20482;-66
2023/08/10 07:53:08;;;;;;;6.00;5.40;;;18.10;99.90;;;;;;5087806;28;21037;-67
2023/08/10 07:55:35;;;;;;;6.23;5.00;;;18.30;99.90;;;;;;5085777;28;21128;-66
2023/08/10 07:58:02;;;;;;;5.23;3.63;;;18.40;99.90;;;;;;5086674;28;20463;-66
2023/08/10 08:00:30;;;;;;;4.17;3.87;;;18.50;99.90;;;;;;5085624;28;20483;-66
2023/08/10 08:02:57;;;;;;;4.10;3.80;;;18.60;99.90;;;;;;5087550;28;20468;-66
2023/08/10 08:05:24;;;;;;;3.13;2.80;;;18.70;99.90;;;;;;5076054;28;20541;-66
2023/08/10 08:07:51;;;;;;;3.40;3.20;;;18.80;99.90;;;;;;5086073;28;20483;-66
2023/08/10 08:10:18;;;;;;;3.00;2.80;;;18.90;99.90;;;;;;5087189;28;20450;-66
2023/08/10 08:12:44;;;;;;;3.00;2.37;;;19.10;99.90;;;;;;5080747;28;21063;-66
2023/08/10 08:15:12;;;;;;;3.60;2.73;;;19.20;99.90;;;;;;5087164;28;20447;-66
2023/08/10 08:18:16;;;;;;;3.60;3.33;;;19.40;99.90;;;;;;5086412;28;20442;-66
2023/08/10 08:20:44;;;;;;;2.90;2.70;;;19.50;99.90;;;;;;5077037;28;21179;-66
2023/08/10 08:23:11;;;;;;;2.27;2.17;;;19.60;99.90;;;;;;5067410;28;21040;-66
2023/08/10 08:25:38;;;;;;;2.80;2.57;;;19.80;99.90;;;;;;5070504;28;20442;-66
2023/08/10 08:28:06;;;;;;;2.13;2.03;;;19.80;99.90;;;;;;5086126;28;20438;-66
2023/08/10 08:30:32;;;;;;;2.60;2.40;;;19.90;99.90;;;;;;5086708;28;20512;-65
2023/08/10 08:32:59;;;;;;;5.13;2.53;;;19.90;99.90;;;;;;5087819;28;20454;-66
2023/08/10 08:35:26;;;;;;;2.57;2.37;;;19.90;99.90;;;;;;5088122;28;20534;-66
2023/08/10 08:37:55;;;;;;;2.73;2.27;;;19.90;99.90;;;;;;5087320;28;20813;-66
2023/08/10 08:40:22;;;;;;;2.17;2.07;;;19.90;99.90;;;;;;5088304;28;20940;-65
2023/08/10 08:42:50;;;;;;;2.40;2.30;;;19.90;99.90;;;;;;5088341;28;20524;-65
2023/08/10 08:45:17;;;;;;;3.60;2.10;;;20.00;99.90;;;;;;5088178;28;20456;-66
2023/08/10 08:47:44;;;;;;;2.80;2.27;;;20.00;99.90;;;;;;5088147;28;20496;-66
2023/08/10 08:50:11;;;;;;;3.27;2.40;;;20.20;99.90;;;;;;5071249;28;20577;-67
2023/08/10 08:52:39;;;;;;;2.57;2.37;;;20.30;99.90;;;;;;5071434;28;20458;-65
2023/08/10 08:55:11;;;;;;;2.30;2.20;;;20.30;99.90;;;;;;5071487;28;20550;-65
2023/08/10 08:57:38;;;;;;;2.80;2.30;;;20.40;99.90;;;;;;5070927;28;20534;-65
2023/08/10 09:00:06;;;;;;;2.23;2.03;;;20.60;99.90;;;;;;5090357;28;20452;-65
2023/08/10 09:02:33;;;;;;;2.13;1.93;;;20.60;99.90;;;;;;5079842;28;20515;-65
2023/08/10 09:05:01;;;;;;;5.30;1.93;;;20.80;99.90;;;;;;5087182;28;20451;-65
2023/08/10 09:07:28;;;;;;;13.43;2.57;;;20.90;99.90;;;;;;5070561;28;21001;-65
2023/08/10 09:09:55;;;;;;;2.20;2.10;;;21.00;99.90;;;;;;5071582;28;20493;-65
2023/08/10 09:12:31;;;;;;;1.90;1.80;;;21.10;99.90;;;;;;5071174;28;20574;-66
2023/08/10 09:15:03;;;;;;;2.13;1.93;;;21.30;99.90;;;;;;5083124;28;20534;-66
2023/08/10 09:17:30;;;;;;;2.17;2.07;;;21.40;99.90;;;;;;5083841;28;20444;-65
2023/08/10 09:19:57;;;;;;;2.80;2.60;;;21.50;99.90;;;;;;5093988;28;20445;-65
2023/08/10 09:22:32;;;;;;;3.63;2.27;;;21.60;99.90;;;;;;5090631;28;20473;-65
2023/08/10 09:24:59;;;;;;;1.90;1.80;;;21.70;99.90;;;;;;5091117;28;20443;-65
2023/08/10 09:27:27;;;;;;;2.20;2.00;;;21.70;97.70;;;;;;5091927;28;20443;-65
2023/08/10 09:29:58;;;;;;;2.40;2.20;;;21.80;96.80;;;;;;5110269;28;20490;-65
2023/08/10 09:32:25;;;;;;;3.10;1.80;;;21.90;99.90;;;;;;5110635;28;20826;-65
2023/08/10 09:34:52;;;;;;;2.27;2.10;;;21.90;98.50;;;;;;5106403;28;20476;-65
2023/08/10 09:37:19;;;;;;;2.60;2.40;;;21.90;98.80;;;;;;5082204;28;20818;-66
2023/08/10 09:39:47;;;;;;;2.47;2.27;;;22.00;99.90;;;;;;5069711;28;20445;-66
2023/08/10 09:42:13;;;;;;;2.87;2.13;;;22.00;98.10;;;;;;5069717;28;20579;-66
2023/08/10 09:44:47;;;;;;;2.47;2.37;;;22.10;98.70;;;;;;5069448;28;20541;-66
2023/08/10 09:47:16;;;;;;;3.47;2.60;;;22.10;97.40;;;;;;5068885;28;20543;-65
2023/08/10 09:49:55;;;;;;;2.57;2.17;;;22.10;97.10;;;;;;5069450;28;20484;-66
2023/08/10 09:52:22;;;;;;;2.80;2.60;;;22.20;95.60;;;;;;5069684;28;20485;-66
2023/08/10 09:54:51;;;;;;;2.63;2.53;;;22.20;96.50;;;;;;5069977;28;20535;-66
2023/08/10 09:57:19;;;;;;;2.50;2.30;;;22.20;96.10;;;;;;5068411;28;20456;-67
2023/08/10 09:59:46;;;;;;;2.63;2.43;;;22.30;97.50;;;;;;5069864;28;20986;-66
2023/08/10 10:02:16;;;;;;;2.73;2.60;;;22.30;96.50;;;;;;5070053;28;20560;-65
2023/08/10 10:04:43;;;;;;;2.33;2.13;;;22.30;94.70;;;;;;5069632;28;21158;-66
2023/08/10 10:07:12;;;;;;;2.63;2.17;;;22.30;96.00;;;;;;5097887;28;20486;-65
2023/08/10 10:09:40;;;;;;;2.73;2.10;;;22.20;95.30;;;;;;5108152;28;20588;-67
2023/08/10 10:12:10;;;;;;;1.90;1.80;;;22.30;96.80;;;;;;5108730;28;21020;-66
2023/08/10 10:14:40;;;;;;;2.40;2.20;;;22.30;95.00;;;;;;5089102;28;20457;-66
2023/08/10 10:17:07;;;;;;;2.30;2.20;;;22.40;97.20;;;;;;5088815;28;20570;-66
2023/08/10 10:19:35;;;;;;;2.40;2.20;;;22.50;95.90;;;;;;5088772;28;21116;-65
2023/08/10 10:22:03;;;;;;;2.50;2.30;;;22.50;94.40;;;;;;5088908;28;20479;-65
2023/08/10 10:24:31;;;;;;;3.73;2.43;;;22.60;94.40;;;;;;5088980;28;20463;-66
2023/08/10 10:27:00;;;;;;;3.30;2.40;;;22.60;95.40;;;;;;5088431;28;20453;-66
2023/08/10 10:29:37;;;;;;;1.90;1.80;;;22.70;94.20;;;;;;5088259;28;20628;-66
2023/08/10 10:32:13;;;;;;;3.10;1.93;;;22.80;95.40;;;;;;5087832;28;20518;-66
2023/08/10 10:34:42;;;;;;;2.90;2.73;;;22.80;94.00;;;;;;5086589;28;20455;-66
2023/08/10 10:37:10;;;;;;;2.90;2.53;;;22.80;93.40;;;;;;5087122;28;20882;-66
2023/08/10 10:39:39;;;;;;;3.10;2.90;;;22.80;92.10;;;;;;5088285;28;20965;-66
2023/08/10 10:42:06;;;;;;;2.33;2.03;;;22.80;92.40;;;;;;5088284;28;20476;-66
2023/08/10 10:45:03;;;;;;;2.93;2.73;;;22.70;92.30;;;;;;5088923;28;20822;-66
2023/08/10 10:47:37;;;;;;;4.30;3.80;;;22.70;91.20;;;;;;5072047;28;20956;-66
2023/08/10 10:50:20;;;;;;;2.23;1.90;;;22.70;93.00;;;;;;5088346;28;20487;-66
2023/08/10 10:52:54;;;;;;;2.03;1.93;;;22.80;91.20;;;;;;5089216;28;20445;-65
2023/08/10 10:55:22;;;;;;;2.73;2.43;;;22.80;93.60;;;;;;5088223;28;20456;-66
2023/08/10 10:57:50;;;;;;;5.30;2.63;;;22.80;93.20;;;;;;5084136;28;20442;-66
2023/08/10 11:00:18;;;;;;;3.20;2.30;;;22.90;93.60;;;;;;5088020;28;20440;-66
2023/08/10 11:02:46;;;;;;;1.80;1.70;;;23.00;91.40;;;;;;5088720;28;20450;-66
2023/08/10 11:05:14;;;;;;;2.20;2.07;;;23.10;91.70;;;;;;5088730;28;20532;-66
2023/08/10 11:07:43;;;;;;;1.93;1.80;;;23.10;90.50;;;;;;5087585;28;20447;-66
2023/08/10 11:10:11;;;;;;;3.47;2.10;;;23.20;89.60;;;;;;5086541;28;20574;-66
2023/08/10 11:12:39;;;;;;;2.63;2.43;;;23.20;90.50;;;;;;5088085;28;20841;-66
2023/08/10 11:15:09;;;;;;;2.33;2.13;;;23.30;90.90;;;;;;5087966;28;20443;-66
2023/08/10 11:17:36;;;;;;;2.63;2.30;;;23.50;92.70;;;;;;5087137;28;20459;-66
2023/08/10 11:20:09;;;;;;;2.53;2.33;;;23.60;93.00;;;;;;5087629;28;20461;-66
2023/08/10 11:22:38;;;;;;;2.03;1.93;;;23.70;91.10;;;;;;5087941;28;20530;-66
2023/08/10 11:25:12;;;;;;;2.80;2.60;;;23.80;90.90;;;;;;5082240;28;20461;-66
2023/08/10 11:27:42;;;;;;;4.60;2.47;;;23.80;89.30;;;;;;5087275;28;20481;-66
2023/08/10 11:30:10;;;;;;;2.00;1.90;;;23.70;90.50;;;;;;5087325;28;20486;-66
2023/08/10 11:32:41;;;;;;;1.97;1.87;;;23.70;90.90;;;;;;5087664;28;20499;-66
2023/08/10 11:35:09;;;;;;;1.87;1.77;;;23.60;91.90;;;;;;5082301;28;20459;-66
2023/08/10 11:37:37;;;;;;;2.60;2.30;;;23.60;91.70;;;;;;5086834;28;20449;-66
2023/08/10 11:40:11;;;;;;;2.83;2.73;;;23.70;91.90;;;;;;5087494;28;20525;-66
2023/08/10 11:42:39;;;;;;;3.20;3.00;;;23.70;91.90;;;;;;5087589;28;20446;-66
2023/08/10 11:45:11;;;;;;;2.87;2.00;;;23.80;91.80;;;;;;5087653;28;20477;-67
2023/08/10 11:47:43;;;;;;;2.40;2.30;;;23.90;91.50;;;;;;5086708;28;20442;-66
2023/08/10 11:50:12;;;;;;;2.53;2.33;;;24.00;91.30;;;;;;5087436;28;20961;-66
2023/08/10 11:52:40;;;;;;;2.57;2.37;;;24.00;90.20;;;;;;5087681;28;21291;-66
2023/08/10 11:55:12;;;;;;;2.20;2.00;;;24.10;90.60;;;;;;5087501;28;20447;-66
2023/08/10 11:57:40;;;;;;;3.03;2.73;;;24.20;91.90;;;;;;5086830;28;20447;-66
2023/08/10 12:00:19;;;;;;;3.10;2.90;;;24.40;91.80;;;;;;5086840;28;20477;-66
2023/08/10 12:02:57;;;;;;;2.23;2.13;;;24.40;91.20;;;;;;5087301;28;20453;-66
2023/08/10 12:05:41;;;;;;;2.03;1.93;;;24.40;90.10;;;;;;5087413;28;20452;-66
2023/08/10 12:08:10;;;;;;;2.83;2.63;;;24.50;90.00;;;;;;5086484;28;20470;-66
2023/08/10 12:10:39;;;;;;;2.37;2.20;;;24.50;90.80;;;;;;5086686;28;20903;-66
2023/08/10 12:13:07;;;;;;;2.23;2.13;;;24.30;90.60;;;;;;5087069;28;20446;-68
2023/08/10 12:15:36;;;;;;;2.67;2.47;;;24.40;89.60;;;;;;5087668;28;20496;-66
2023/08/10 12:18:03;;;;;;;2.30;2.20;;;24.50;90.90;;;;;;5086443;28;20492;-66
2023/08/10 12:20:31;;;;;;;2.20;2.10;;;24.50;89.60;;;;;;5088650;28;20469;-66
2023/08/10 12:22:58;;;;;;;2.57;2.37;;;24.70;90.40;;;;;;5088059;28;20526;-67
2023/08/10 12:25:25;;;;;;;3.00;2.50;;;24.80;88.30;;;;;;5088084;28;20899;-66
2023/08/10 12:27:53;;;;;;;2.03;1.93;;;25.10;89.40;;;;;;5090148;28;20462;-67
2023/08/10 12:30:20;;;;;;;2.97;2.53;;;25.10;81.70;;;;;;5092993;28;20521;-66
2023/08/10 12:32:47;;;;;;;2.77;2.23;;;25.20;81.30;;;;;;5089838;28;21046;-67
2023/08/10 12:35:14;;;;;;;3.03;2.07;;;25.30;83.20;;;;;;5089095;28;20443;-66
2023/08/10 12:37:41;;;;;;;2.40;2.20;;;25.40;81.60;;;;;;5089194;28;20455;-67
2023/08/10 12:40:10;;;;;;;2.60;2.40;;;25.50;80.00;;;;;;5089958;28;20476;-66
2023/08/10 12:42:39;;;;;;;2.13;2.03;;;25.60;79.50;;;;;;5089892;28;20450;-66
2023/08/10 12:45:10;;;;;;;2.20;2.10;;;25.60;80.80;;;;;;5090163;28;20461;-66
2023/08/10 12:47:37;;;;;;;2.30;2.20;;;25.80;84.00;;;;;;5089341;28;20482;-66
2023/08/10 12:50:05;;;;;;;2.70;2.60;;;25.80;78.70;;;;;;5089871;28;20487;-67